createdAt,value
2023-05-23T00:02:49.299Z,18.03
2023-05-23T00:07:49.207Z,18.21
2023-05-23T00:12:49.108Z,18.17
2023-05-23T00:17:49.162Z,18.15
2023-05-23T00:22:49.075Z,18.20
2023-05-23T00:27:49.043Z,17.77
2023-05-23T00:32:48.913Z,17.89
2023-05-23T00:37:48.827Z,17.77
2023-05-23T00:42:48.784Z,17.68
2023-05-23T00:47:48.746Z,17.78
2023-05-23T00:52:48.697Z,17.58
2023-05-23T00:57:48.625Z,17.18
2023-05-23T01:02:48.661Z,17.21
2023-05-23T01:07:48.567Z,17.31
2023-05-23T01:12:48.464Z,17.26
2023-05-23T01:17:48.491Z,17.16
2023-05-23T01:22:48.325Z,17.38
2023-05-23T01:27:48.299Z,17.46
2023-05-23T01:32:48.272Z,17.78
2023-05-23T01:37:48.144Z,17.48
2023-05-23T01:42:48.101Z,17.66
2023-05-23T01:47:48.141Z,17.46
2023-05-23T01:52:48.052Z,17.59
2023-05-23T01:57:48.063Z,17.54
2023-05-23T02:02:48.083Z,17.68
2023-05-23T02:07:47.911Z,17.64
2023-05-23T02:12:47.774Z,17.68
2023-05-23T02:17:47.824Z,17.58
2023-05-23T02:22:47.734Z,17.55
2023-05-23T02:27:51.047Z,17.51
2023-05-23T02:32:47.748Z,17.59
2023-05-23T02:37:47.490Z,17.77
2023-05-23T02:42:47.477Z,17.70
2023-05-23T02:47:47.483Z,17.62
2023-05-23T02:52:47.360Z,17.70
2023-05-23T02:57:47.270Z,17.49
2023-05-23T03:02:47.349Z,17.34
2023-05-23T03:07:47.192Z,17.26
2023-05-23T03:12:47.204Z,17.08
2023-05-23T03:17:47.070Z,17.15
2023-05-23T03:22:47.099Z,17.16
2023-05-23T03:27:46.965Z,17.18
2023-05-23T03:32:46.931Z,17.06
2023-05-23T03:37:46.836Z,17.11
2023-05-23T03:42:46.789Z,17.22
2023-05-23T03:47:46.737Z,17.22
2023-05-23T03:52:46.705Z,17.25
2023-05-23T03:57:46.623Z,17.11
2023-05-23T04:02:46.810Z,17.04
2023-05-23T04:07:46.498Z,16.81
2023-05-23T04:12:46.432Z,16.82
2023-05-23T04:17:46.460Z,17.03
2023-05-23T04:22:46.374Z,17.01
2023-05-23T04:27:46.286Z,16.96
2023-05-23T04:32:46.334Z,16.85
2023-05-23T04:37:46.256Z,16.88
2023-05-23T04:42:46.152Z,17.00
2023-05-23T04:47:46.262Z,16.86
2023-05-23T04:52:46.142Z,16.78
2023-05-23T04:57:46.085Z,16.71
2023-05-23T05:02:46.094Z,16.79
2023-05-23T05:07:45.994Z,16.71
2023-05-23T05:12:45.932Z,16.91
2023-05-23T05:17:47.619Z,17.18
2023-05-23T05:22:47.781Z,17.06
2023-05-23T05:27:45.732Z,17.19
2023-05-23T05:32:45.652Z,17.11
2023-05-23T05:37:45.526Z,16.96
2023-05-23T05:42:45.508Z,17.04
2023-05-23T05:47:45.467Z,17.07
2023-05-23T05:52:45.449Z,17.23
2023-05-23T05:57:45.352Z,17.25
2023-05-23T06:02:45.476Z,17.22
2023-05-23T06:07:45.203Z,17.14
2023-05-23T06:12:45.172Z,17.25
2023-05-23T06:17:45.119Z,16.93
2023-05-23T06:22:45.180Z,17.01
2023-05-23T06:27:45.111Z,17.11
2023-05-23T06:32:45.121Z,17.14
2023-05-23T06:37:44.960Z,17.04
2023-05-23T06:42:45.864Z,17.21
2023-05-23T06:47:44.888Z,16.71
2023-05-23T06:52:44.818Z,16.83
2023-05-23T06:57:44.689Z,16.94
2023-05-23T07:02:44.635Z,16.83
2023-05-23T07:07:44.577Z,16.82
2023-05-23T07:12:44.504Z,16.78
2023-05-23T07:17:44.533Z,16.73
2023-05-23T07:22:44.416Z,16.82
2023-05-23T07:27:44.354Z,16.63
2023-05-23T07:32:44.342Z,16.73
2023-05-23T07:37:44.275Z,16.93
2023-05-23T07:42:44.182Z,16.98
2023-05-23T07:47:44.182Z,17.00
2023-05-23T07:52:44.252Z,16.73
2023-05-23T07:57:44.143Z,16.96
2023-05-23T08:02:44.110Z,16.98
2023-05-23T08:07:47.406Z,16.88
2023-05-23T08:12:43.870Z,16.78
2023-05-23T08:17:43.936Z,16.76
2023-05-23T08:22:43.847Z,17.11
2023-05-23T08:27:44.791Z,16.98
2023-05-23T08:32:43.638Z,17.12
2023-05-23T08:37:43.553Z,16.94
2023-05-23T08:42:43.607Z,16.94
2023-05-23T08:47:43.494Z,16.82
2023-05-23T08:52:43.407Z,16.89
2023-05-23T08:57:43.426Z,17.00
2023-05-23T09:02:43.469Z,16.46
2023-05-23T09:07:43.272Z,16.85
2023-05-23T09:12:43.260Z,16.76
2023-05-23T09:17:43.229Z,16.43
2023-05-23T09:22:43.221Z,16.53
2023-05-23T09:27:47.605Z,16.63
2023-05-23T09:32:43.079Z,16.42
2023-05-23T09:37:42.960Z,16.12
2023-05-23T09:42:42.903Z,15.78
2023-05-23T09:47:42.901Z,16.02
2023-05-23T09:52:42.806Z,16.20
2023-05-23T09:57:42.809Z,16.35
2023-05-23T10:02:42.726Z,16.39
2023-05-23T10:07:42.683Z,16.24
2023-05-23T10:12:42.615Z,16.21
2023-05-23T10:17:42.574Z,16.46
2023-05-23T10:22:44.594Z,16.89
2023-05-23T10:27:42.393Z,16.45
2023-05-23T10:32:42.434Z,15.86
2023-05-23T10:37:42.355Z,16.00
2023-05-23T10:42:42.293Z,15.96
2023-05-23T10:47:42.249Z,15.78
2023-05-23T10:52:42.197Z,16.02
2023-05-23T10:57:42.194Z,16.23
2023-05-23T11:02:42.055Z,16.79
2023-05-23T11:07:42.022Z,17.15
2023-05-23T11:12:41.961Z,17.63
2023-05-23T11:17:41.875Z,17.79
2023-05-23T11:22:41.826Z,17.72
2023-05-23T11:27:41.756Z,17.89
2023-05-23T11:32:41.705Z,18.12
2023-05-23T11:37:41.632Z,18.37
2023-05-23T11:42:41.654Z,18.23
2023-05-23T11:47:41.587Z,18.44
2023-05-23T11:52:41.518Z,18.32
2023-05-23T11:57:41.452Z,18.55
2023-05-23T12:02:41.492Z,18.57
2023-05-23T12:07:41.355Z,18.07
2023-05-23T12:12:41.644Z,17.16
2023-05-23T12:17:41.663Z,17.28
2023-05-23T12:22:41.193Z,17.55
2023-05-23T12:27:41.121Z,18.30
2023-05-23T12:32:41.064Z,18.60
2023-05-23T12:37:41.115Z,18.88
2023-05-23T12:42:40.925Z,19.32
2023-05-23T12:47:40.938Z,19.69
2023-05-23T12:52:40.895Z,19.56
2023-05-23T12:57:40.791Z,19.99
2023-05-23T13:02:40.759Z,20.69
2023-05-23T13:07:40.743Z,20.73
2023-05-23T13:12:40.681Z,20.35
2023-05-23T13:17:40.608Z,20.26
2023-05-23T13:22:40.543Z,20.38
2023-05-23T13:27:40.488Z,20.99
2023-05-23T13:32:40.459Z,21.09
2023-05-23T13:37:40.391Z,20.74
2023-05-23T13:42:40.449Z,20.61
2023-05-23T13:47:40.301Z,20.24
2023-05-23T13:52:44.046Z,20.17
2023-05-23T13:57:40.370Z,20.17
2023-05-23T14:02:40.236Z,20.31
2023-05-23T14:07:40.096Z,19.65
2023-05-23T14:12:40.127Z,20.29
2023-05-23T14:17:39.991Z,20.82
2023-05-23T14:22:39.877Z,20.73
2023-05-23T14:27:39.830Z,20.59
2023-05-23T14:32:39.825Z,20.14
2023-05-23T14:37:39.721Z,20.26
2023-05-23T14:42:39.666Z,21.53
2023-05-23T14:47:39.768Z,22.80
2023-05-23T14:52:39.666Z,22.35
2023-05-23T14:57:39.602Z,21.19
2023-05-23T15:02:39.584Z,22.25
2023-05-23T15:07:39.487Z,23.98
2023-05-23T15:12:39.420Z,21.84
2023-05-23T15:17:39.362Z,20.98
2023-05-23T15:22:40.328Z,21.67
2023-05-23T15:27:39.243Z,20.10
2023-05-23T15:32:39.164Z,20.57
2023-05-23T15:37:39.079Z,21.35
2023-05-23T15:42:39.049Z,21.14
2023-05-23T15:47:38.994Z,20.69
2023-05-23T15:52:38.952Z,20.55
2023-05-23T15:57:38.985Z,19.78
2023-05-23T16:02:38.928Z,20.31
2023-05-23T16:07:39.815Z,19.87
2023-05-23T16:12:38.819Z,19.80
2023-05-23T16:17:40.669Z,19.54
2023-05-23T16:22:38.651Z,19.43
2023-05-23T16:27:38.684Z,18.75
2023-05-23T16:32:38.593Z,19.11
2023-05-23T16:37:39.576Z,19.46
2023-05-23T16:42:38.431Z,19.47
2023-05-23T16:47:38.403Z,19.18
2023-05-23T16:52:38.303Z,18.75
2023-05-23T16:57:38.261Z,18.48
2023-05-23T17:02:38.276Z,18.90
2023-05-23T17:07:38.131Z,18.72
2023-05-23T17:12:38.130Z,18.60
2023-05-23T17:17:38.046Z,18.32
2023-05-23T17:22:38.103Z,18.36
2023-05-23T17:27:38.022Z,18.25
2023-05-23T17:32:38.004Z,18.44
2023-05-23T17:37:37.890Z,18.25
2023-05-23T17:42:37.758Z,18.35
2023-05-23T17:47:39.774Z,18.37
2023-05-23T17:52:37.720Z,18.26
2023-05-23T17:57:37.712Z,18.12
2023-05-23T18:02:39.601Z,17.87
2023-05-23T18:07:37.464Z,17.55
2023-05-23T18:12:37.441Z,17.28
2023-05-23T18:17:37.470Z,17.19
2023-05-23T18:22:37.374Z,17.23
2023-05-23T18:27:37.238Z,16.88
2023-05-23T18:32:37.256Z,16.86
2023-05-23T18:37:37.197Z,16.79
2023-05-23T18:42:37.096Z,16.78
2023-05-23T18:47:37.149Z,16.66
2023-05-23T18:52:37.157Z,16.38
2023-05-23T18:57:37.064Z,16.14
2023-05-23T19:02:37.008Z,16.09
2023-05-23T19:07:36.970Z,15.78
2023-05-23T19:12:36.911Z,15.54
2023-05-23T19:17:37.874Z,15.62
2023-05-23T19:22:50.124Z,15.41
2023-05-23T19:27:37.655Z,15.36
2023-05-23T19:32:36.567Z,15.27
2023-05-23T19:37:36.543Z,15.17
2023-05-23T19:42:36.474Z,14.92
2023-05-23T19:47:36.447Z,14.98
2023-05-23T19:52:36.331Z,14.88
2023-05-23T19:57:36.284Z,14.83
2023-05-23T20:02:36.290Z,14.65
2023-05-23T20:07:36.138Z,14.36
2023-05-23T20:12:36.106Z,14.25
2023-05-23T20:17:37.125Z,14.28
2023-05-23T20:22:36.051Z,14.14
2023-05-23T20:27:36.025Z,14.15
2023-05-23T20:32:36.044Z,14.03
2023-05-23T20:37:35.883Z,13.97
2023-05-23T20:42:35.919Z,13.87
2023-05-23T20:47:35.915Z,13.81
2023-05-23T20:52:35.753Z,13.79
2023-05-23T20:57:35.662Z,13.63
2023-05-23T21:02:35.811Z,13.46
2023-05-23T21:07:35.502Z,13.42
2023-05-23T21:12:35.488Z,13.20
2023-05-23T21:17:35.375Z,13.22
2023-05-23T21:22:35.334Z,13.23
2023-05-23T21:27:35.346Z,12.96
2023-05-23T21:32:35.261Z,12.97
2023-05-23T21:37:35.152Z,12.89
2023-05-23T21:42:35.142Z,12.71
2023-05-23T21:47:35.163Z,12.71
2023-05-23T21:52:35.140Z,12.57
2023-05-23T21:57:36.062Z,12.53
2023-05-23T22:02:35.030Z,12.54
2023-05-23T22:07:34.870Z,12.39
2023-05-23T22:12:35.010Z,12.35
2023-05-23T22:17:34.892Z,12.38
2023-05-23T22:22:34.756Z,12.19
2023-05-23T22:27:34.700Z,11.98
2023-05-23T22:32:34.746Z,11.95
2023-05-23T22:37:34.514Z,11.88
2023-05-23T22:42:34.505Z,11.72
2023-05-23T22:47:34.533Z,11.61
2023-05-23T22:52:34.390Z,11.58
2023-05-23T22:57:34.326Z,11.52
2023-05-23T23:02:34.299Z,11.28
2023-05-23T23:07:34.222Z,11.19
2023-05-23T23:12:34.169Z,11.18
2023-05-23T23:17:34.111Z,11.15
2023-05-23T23:22:34.098Z,10.91
2023-05-23T23:27:34.117Z,10.99
2023-05-23T23:32:34.352Z,10.99
2023-05-23T23:37:33.966Z,10.94
2023-05-23T23:42:33.858Z,10.88
2023-05-23T23:47:33.902Z,10.78
2023-05-23T23:52:33.802Z,10.70
2023-05-23T23:57:33.749Z,10.68
